This is the latest recevied weather packets stored in our database for station/object KI5NXU. If no packets are shown the sender has not sent any weather packets the latest 1 day(s).
| Time | Temp. | Humidity | Pressure | Rain* | Wind** | Luminosity | Snow |
|---|---|---|---|---|---|---|---|
| 1778094209 | 18.33° C | 63% | 1013.8 hPa | 0 mm | - | 628 W/m² | - |
| 1778093906 | 17.78° C | 63% | 1013.6 hPa | 0 mm | - | 678 W/m² | - |
| 1778093603 | 17.78° C | 64% | 1013.9 hPa | 0 mm | - | 604 W/m² | - |
| 1778092694 | 18.33° C | 61% | 1014.2 hPa | 0 mm | - | 731 W/m² | - |
| 1778091481 | 16.67° C | 65% | 1014.2 hPa | 0 mm | - | 593 W/m² | - |
| 1778089662 | 16.67° C | 65% | 1013.9 hPa | 0 mm | - | 575 W/m² | - |
| 1778087542 | 16.11° C | 66% | 1014.4 hPa | 0 mm | - | 351 W/m² | - |
| 1778086028 | 15.56° C | 68% | 1014 hPa | 0 mm | - | 813 W/m² | - |
| 1778085725 | 15° C | 69% | 1013.9 hPa | 0 mm | - | 747 W/m² | - |
| 1778082694 | 13.33° C | 74% | 1013.9 hPa | 0 mm | - | 306 W/m² | - |
| 1778081556 | 12.78° C | 75% | 1013.8 hPa | 0 mm | - | 264 W/m² | - |
| 1778081253 | 12.78° C | 76% | 1013.5 hPa | 0 mm | - | 344 W/m² | - |
| 1778080042 | 11.67° C | 79% | 1014 hPa | 0 mm | - | 166 W/m² | - |
| 1778079739 | 11.67° C | 79% | 1014.2 hPa | 0 mm | - | 158 W/m² | - |
| 1778078830 | 11.67° C | 80% | 1015.4 hPa | 0 mm | - | 121 W/m² | - |
| 1778078527 | 11.11° C | 81% | 1015.6 hPa | 0 mm | - | 64 W/m² | - |
| 1778077318 | 11.11° C | 83% | 1015.8 hPa | 0 mm | - | 19 W/m² | - |
| 1778075805 | 11.11° C | 87% | 1014.3 hPa | 0 mm | - | 31 W/m² | - |
| 1778075501 | 11.11° C | 87% | 1014 hPa | 0 mm | - | 33 W/m² | - |
| 1778074591 | 11.11° C | 87% | 1014 hPa | 0 mm | - | 43 W/m² | - |
| 1778074288 | 10.56° C | 86% | 1014.3 hPa | 0 mm | - | 37 W/m² | - |
| 1778073682 | 10.56° C | 87% | 1014.7 hPa | 0 mm | - | 18 W/m² | - |
| 1778072773 | 10.56° C | 88% | 1014.1 hPa | 0 mm | - | 12 W/m² | - |
| 1778071866 | 10.56° C | 86% | 1013.3 hPa | 0 mm | - | 22 W/m² | - |
| 1778071261 | 11.11° C | 86% | 1013.2 hPa | 0 mm | - | 21 W/m² | - |
* Rain latest hour (hover to see other rain measurements)
** Current wind speed in m/s (hover to see current wind gust speed)